Time;durP1;ratioP1;P1;durP2;ratioP2;P2;SDS_P1;SDS_P2;PMS_P1;PMS_P2;Temp;Humidity;BMP_temperature;BMP_pressure;BME280_temperature;BME280_humidity;BME280_pressure;Samples;Min_cycle;Max_cycle;Signal;HPM_P1;HPM_P2
2021/09/26 00:01:56;;;;;;;30.97;22.37;;;;;;;15.47;96.60;99404.09;4189730;84;21073;-83
2021/09/26 00:08:01;;;;;;;32.00;21.50;;;;;;;15.44;96.61;99402.12;4165126;82;21068;-83
2021/09/26 00:14:03;;;;;;;31.52;22.35;;;;;;;15.37;96.78;99407.64;4149368;84;21108;-82
2021/09/26 00:20:05;;;;;;;29.37;21.25;;;;;;;15.35;96.99;99409.20;4198131;82;21090;-83
2021/09/26 00:26:07;;;;;;;29.77;21.42;;;;;;;15.35;97.14;99398.97;4192222;82;21040;-83
2021/09/26 00:32:10;;;;;;;33.02;21.70;;;;;;;15.32;97.01;99404.48;4227815;83;21060;-83
2021/09/26 00:38:12;;;;;;;30.88;22.67;;;;;;;15.27;97.38;99403.50;4231960;83;21020;-83
2021/09/26 00:44:14;;;;;;;33.73;22.62;;;;;;;15.30;97.54;99406.87;4241085;81;21068;-83
2021/09/26 00:50:19;;;;;;;32.63;23.27;;;;;;;15.26;97.62;99401.94;4228289;82;21074;-83
2021/09/26 00:56:21;;;;;;;32.30;21.75;;;;;;;15.21;97.60;99405.09;4229234;83;21080;-83
2021/09/26 01:02:23;;;;;;;30.57;22.67;;;;;;;15.14;97.92;99401.73;4222448;83;21072;-83
2021/09/26 01:08:44;;;;;;;26.07;19.52;;;;;;;15.13;97.99;99398.80;4226283;83;21021;-83
2021/09/26 01:15:07;;;;;;;32.08;21.93;;;;;;;15.16;98.26;99409.03;4231801;82;21611;-83
2021/09/26 01:21:48;;;;;;;33.50;22.50;;;;;;;15.21;98.28;99414.73;4222500;83;21087;-82
2021/09/26 01:28:34;;;;;;;31.55;22.13;;;;;;;15.16;98.18;99410.41;4073749;85;21204;-83
2021/09/26 01:34:54;;;;;;;32.75;23.42;;;;;;;15.14;98.49;99400.97;4246215;82;21067;-83
2021/09/26 01:41:04;;;;;;;32.88;22.93;;;;;;;15.06;98.71;99393.30;4245983;82;21741;-83
2021/09/26 01:47:12;;;;;;;31.12;22.45;;;;;;;15.04;98.67;99397.03;4244297;82;21055;-82
2021/09/26 01:53:14;;;;;;;30.05;22.27;;;;;;;15.01;98.98;99401.17;4252955;81;21131;-83
2021/09/26 01:59:21;;;;;;;30.15;21.50;;;;;;;15.06;99.10;99401.58;4250309;82;21083;-83
2021/09/26 02:05:23;;;;;;;33.30;22.82;;;;;;;15.04;99.24;99414.95;4253162;82;21099;-84
2021/09/26 02:11:26;;;;;;;36.90;23.02;;;;;;;15.02;99.36;99413.76;4253414;82;21099;-83
2021/09/26 02:17:30;;;;;;;27.30;20.80;;;;;;;15.00;99.30;99418.29;4250852;83;21606;-84
2021/09/26 02:23:34;;;;;;;29.75;21.80;;;;;;;14.99;99.49;99422.23;4251692;83;21130;-84
2021/09/26 02:29:39;;;;;;;31.62;22.40;;;;;;;15.00;99.53;99421.05;4229032;83;21401;-84
2021/09/26 02:35:40;;;;;;;31.12;21.65;;;;;;;14.96;99.65;99413.96;4237208;83;21581;-83
2021/09/26 02:42:14;;;;;;;27.90;20.80;;;;;;;14.94;99.56;99423.23;4225450;83;21084;-83
2021/09/26 02:48:32;;;;;;;27.95;20.92;;;;;;;14.88;99.62;99432.47;4223077;83;21047;-83
2021/09/26 02:54:41;;;;;;;27.93;20.37;;;;;;;14.82;99.40;99434.63;4229627;83;21062;-83
2021/09/26 03:00:47;;;;;;;26.93;20.40;;;;;;;14.64;99.13;99435.20;4232339;83;21020;-83
2021/09/26 03:06:50;;;;;;;28.92;20.88;;;;;;;14.53;99.34;99434.39;4232613;82;21040;-83
2021/09/26 03:12:52;;;;;;;29.42;21.45;;;;;;;14.38;99.46;99437.69;4220562;83;21549;-83
2021/09/26 03:18:55;;;;;;;25.62;18.35;;;;;;;14.32;99.78;99450.27;4229928;83;21056;-83
2021/09/26 03:24:56;;;;;;;28.30;20.92;;;;;;;14.33;99.63;99449.08;4236726;82;21674;-83
2021/09/26 03:30:57;;;;;;;26.02;18.67;;;;;;;14.30;99.70;99440.22;4216578;83;21382;-83
2021/09/26 03:36:58;;;;;;;29.25;18.40;;;;;;;14.23;99.44;99440.77;4238311;83;21053;-84
2021/09/26 03:43:00;;;;;;;27.70;20.85;;;;;;;14.06;99.26;99444.42;4238323;83;21108;-83
2021/09/26 03:49:02;;;;;;;27.75;21.17;;;;;;;13.87;99.27;99446.70;4242140;83;21036;-83
2021/09/26 03:55:09;;;;;;;28.25;20.88;;;;;;;13.84;99.73;99452.37;4242969;83;21033;-83
2021/09/26 04:01:11;;;;;;;35.08;22.95;;;;;;;13.84;99.89;99461.24;4233101;82;21068;-83
2021/09/26 04:07:12;;;;;;;26.62;20.20;;;;;;;13.83;99.92;99456.31;4230594;83;21941;-83
2021/09/26 04:13:13;;;;;;;31.62;22.10;;;;;;;13.76;99.83;99443.91;4238439;81;21024;-83
2021/09/26 04:19:16;;;;;;;35.75;22.10;;;;;;;13.67;99.79;99453.07;4224849;83;21080;-83
2021/09/26 04:25:18;;;;;;;27.20;20.60;;;;;;;13.65;100.00;99449.94;4231588;82;21530;-83
2021/09/26 04:31:19;;;;;;;24.92;19.82;;;;;;;13.67;100.00;99455.83;4219138;83;21139;-83
2021/09/26 04:37:20;;;;;;;29.48;21.30;;;;;;;13.70;100.00;99468.04;4227076;83;21102;-84
2021/09/26 04:43:22;;;;;;;26.70;17.82;;;;;;;13.66;100.00;99459.76;4232880;83;21064;-83
2021/09/26 04:49:28;;;;;;;33.20;20.68;;;;;;;13.64;100.00;99462.70;4224656;82;21679;-83
2021/09/26 04:55:28;;;;;;;28.77;19.75;;;;;;;13.61;100.00;99457.94;4229606;81;21032;-83
2021/09/26 05:01:29;;;;;;;27.05;18.50;;;;;;;13.52;100.00;99463.80;4234777;82;21095;-83
2021/09/26 05:07:31;;;;;;;25.12;18.35;;;;;;;13.52;100.00;99468.50;4230108;82;21140;-83
2021/09/26 05:13:34;;;;;;;28.02;20.88;;;;;;;13.47;100.00;99468.84;4225986;83;21040;-83
2021/09/26 05:19:35;;;;;;;27.70;20.80;;;;;;;13.49;100.00;99467.31;4229946;83;21083;-83
2021/09/26 05:25:37;;;;;;;26.17;18.48;;;;;;;13.56;100.00;99472.08;4218329;82;21083;-83
2021/09/26 05:31:39;;;;;;;25.68;18.48;;;;;;;13.59;100.00;99478.95;4258519;83;21114;-84
2021/09/26 05:37:42;;;;;;;25.37;18.48;;;;;;;13.66;100.00;99479.59;4263821;83;21555;-84
2021/09/26 05:43:45;;;;;;;26.23;18.70;;;;;;;13.74;100.00;99485.34;4246946;82;21582;-83
2021/09/26 05:49:46;;;;;;;30.43;20.95;;;;;;;13.85;100.00;99495.25;4254013;81;21576;-83
2021/09/26 05:55:48;;;;;;;28.45;19.42;;;;;;;13.94;100.00;99497.64;4241419;83;21099;-84
2021/09/26 06:01:50;;;;;;;28.23;20.10;;;;;;;14.03;100.00;99496.73;4262159;81;21035;-83
2021/09/26 06:07:54;;;;;;;27.35;19.60;;;;;;;14.17;100.00;99486.55;4255602;83;21479;-83
2021/09/26 06:13:55;;;;;;;26.45;19.23;;;;;;;14.32;100.00;99500.42;4254375;83;21024;-83
2021/09/26 06:19:57;;;;;;;22.93;16.65;;;;;;;14.67;100.00;99501.34;4249782;83;21039;-83
2021/09/26 06:26:00;;;;;;;28.83;19.98;;;;;;;14.80;100.00;99508.05;4236602;83;21062;-83
2021/09/26 06:32:01;;;;;;;25.12;16.60;;;;;;;14.89;100.00;99500.80;4187723;82;21092;-83
2021/09/26 06:38:03;;;;;;;24.92;17.55;;;;;;;15.04;100.00;99499.05;4160598;84;21049;-83
2021/09/26 06:44:05;;;;;;;20.82;16.90;;;;;;;15.17;100.00;99518.17;4160450;83;21117;-83
2021/09/26 06:50:08;;;;;;;22.80;17.62;;;;;;;15.29;100.00;99510.09;4166536;84;21060;-83
2021/09/26 06:56:09;;;;;;;21.30;16.67;;;;;;;15.41;100.00;99521.55;4165783;84;21116;-84
2021/09/26 07:02:11;;;;;;;20.70;16.77;;;;;;;15.49;100.00;99514.05;4156210;83;21081;-83
2021/09/26 07:08:13;;;;;;;22.67;17.05;;;;;;;15.63;100.00;99523.12;4147787;84;21066;-83
2021/09/26 07:14:14;;;;;;;26.20;18.40;;;;;;;15.80;100.00;99519.36;4148636;84;21101;-83
2021/09/26 07:20:15;;;;;;;21.77;17.12;;;;;;;15.96;100.00;99521.88;4169877;84;21053;-82
2021/09/26 07:26:18;;;;;;;20.32;16.35;;;;;;;16.13;100.00;99525.80;4170240;84;21135;-83
2021/09/26 07:32:21;;;;;;;23.87;17.00;;;;;;;16.33;100.00;99533.83;4256379;82;21093;-82
2021/09/26 07:52:18;;;;;;;20.15;15.93;;;;;;;17.60;100.00;99544.39;4453830;79;22205;-84
2021/09/26 07:58:19;;;;;;;21.20;13.93;;;;;;;17.78;100.00;99541.45;4411739;80;21054;-84
2021/09/26 08:04:20;;;;;;;17.73;12.68;;;;;;;17.95;99.65;99534.95;4473740;79;22040;-84
2021/09/26 08:10:21;;;;;;;15.88;12.00;;;;;;;18.15;99.44;99535.33;4405543;80;21924;-84
2021/09/26 08:16:23;;;;;;;16.10;11.03;;;;;;;18.47;99.06;99530.84;4466775;79;21084;-82
2021/09/26 08:22:25;;;;;;;14.30;10.40;;;;;;;18.77;96.47;99541.16;4412461;80;21091;-83
2021/09/26 08:28:27;;;;;;;14.33;10.05;;;;;;;19.00;95.12;99543.41;4423551;80;21028;-82
2021/09/26 08:34:31;;;;;;;11.40;8.90;;;;;;;19.41;95.55;99546.00;4416008;80;21012;-83
2021/09/26 08:40:33;;;;;;;9.95;8.35;;;;;;;19.87;90.60;99542.63;4421286;80;21060;-83
2021/09/26 08:46:34;;;;;;;12.65;7.25;;;;;;;20.20;90.02;99541.66;4418586;80;21841;-82
2021/09/26 08:52:37;;;;;;;9.38;6.85;;;;;;;20.98;89.43;99546.45;4439489;80;21040;-82
2021/09/26 08:58:39;;;;;;;8.78;7.40;;;;;;;21.76;86.90;99536.26;4430229;80;21579;-82
2021/09/26 09:04:42;;;;;;;8.40;6.80;;;;;;;22.12;75.00;99540.48;4440586;80;21040;-82
2021/09/26 09:10:50;;;;;;;10.65;6.75;;;;;;;22.91;83.73;99537.86;4419462;80;21087;-82
2021/09/26 09:16:56;;;;;;;7.87;6.10;;;;;;;23.66;82.23;99544.08;4433139;80;21547;-83
2021/09/26 09:23:17;;;;;;;7.73;6.00;;;;;;;24.33;81.67;99540.55;4426301;80;21102;-83
2021/09/26 09:29:24;;;;;;;7.97;5.20;;;;;;;24.98;78.17;99530.73;4428513;78;21601;-82
2021/09/26 09:35:28;;;;;;;6.37;5.28;;;;;;;25.22;77.74;99516.98;4450922;78;21079;-83
2021/09/26 09:41:37;;;;;;;6.60;4.92;;;;;;;25.75;76.67;99517.80;4441955;80;21052;-82
2021/09/26 09:48:03;;;;;;;5.37;4.45;;;;;;;26.50;72.41;99521.75;4419132;80;21735;-83
2021/09/26 09:54:08;;;;;;;6.05;4.70;;;;;;;26.55;71.88;99518.31;4426212;78;21094;-82
2021/09/26 10:00:22;;;;;;;6.42;4.60;;;;;;;26.70;70.67;99515.03;4442711;78;21047;-83
2021/09/26 10:06:40;;;;;;;6.55;3.98;;;;;;;26.90;70.14;99511.72;4440894;80;21765;-84
2021/09/26 10:12:41;;;;;;;4.55;4.15;;;;;;;27.43;65.53;99509.97;4423348;80;21591;-83
2021/09/26 10:18:45;;;;;;;4.47;4.08;;;;;;;27.59;66.63;99508.17;4420773;80;21056;-83
2021/09/26 10:24:51;;;;;;;4.08;3.67;;;;;;;28.06;62.48;99509.60;4442073;80;21056;-82
2021/09/26 10:30:56;;;;;;;4.03;3.60;;;;;;;28.18;64.08;99505.74;4429825;78;21516;-82
2021/09/26 10:37:00;;;;;;;5.87;4.40;;;;;;;28.31;62.66;99501.25;4432200;78;21020;-82
2021/09/26 10:43:30;;;;;;;5.33;4.08;;;;;;;28.06;59.68;99500.38;4436977;78;21600;-82
2021/09/26 10:49:42;;;;;;;5.15;4.12;;;;;;;28.15;60.14;99498.27;4429735;78;21141;-86
2021/09/26 10:55:44;;;;;;;4.35;3.92;;;;;;;28.33;59.12;99495.28;4443442;80;21460;-84
2021/09/26 11:01:45;;;;;;;6.10;5.30;;;;;;;27.75;57.13;99488.08;4444477;80;21035;-85
2021/09/26 11:07:47;;;;;;;5.80;4.37;;;;;;;27.89;56.93;99479.56;4441352;80;21040;-85
2021/09/26 11:13:57;;;;;;;6.05;5.08;;;;;;;27.66;56.16;99481.73;4440064;80;21448;-84
2021/09/26 11:19:58;;;;;;;7.70;5.05;;;;;;;27.46;51.37;99483.09;4419326;80;21039;-85
2021/09/26 11:26:06;;;;;;;8.08;5.50;;;;;;;26.46;54.15;99475.44;4429861;80;21028;-86
2021/09/26 11:32:25;;;;;;;9.63;5.92;;;;;;;26.30;54.77;99468.75;4439006;80;21044;-84
2021/09/26 11:38:34;;;;;;;6.05;5.03;;;;;;;25.84;54.98;99467.33;4437848;80;21583;-85
2021/09/26 11:44:52;;;;;;;7.95;5.35;;;;;;;25.41;55.50;99466.19;4425802;80;21548;-86
2021/09/26 11:50:54;;;;;;;9.53;6.85;;;;;;;25.24;56.04;99446.66;4423252;80;21583;-85
2021/09/26 11:56:56;;;;;;;7.40;6.28;;;;;;;25.10;56.08;99444.44;4434948;80;21560;-84
2021/09/26 12:03:18;;;;;;;7.33;5.75;;;;;;;24.80;56.40;99444.45;4423417;80;21099;-84
2021/09/26 12:09:51;;;;;;;6.80;5.75;;;;;;;24.43;57.15;99440.03;4424811;80;21055;-85
2021/09/26 12:15:52;;;;;;;10.53;6.37;;;;;;;24.33;57.51;99441.84;4426456;80;21523;-85
2021/09/26 12:22:14;;;;;;;10.55;6.37;;;;;;;24.14;57.79;99438.14;4433002;80;20985;-82
2021/09/26 12:28:21;;;;;;;9.35;6.85;;;;;;;23.65;58.49;99420.95;4423335;80;21030;-83
2021/09/26 12:34:34;;;;;;;8.28;6.37;;;;;;;23.54;59.37;99421.30;4433543;80;21051;-82
2021/09/26 12:40:40;;;;;;;7.65;5.65;;;;;;;23.54;59.37;99421.30;4416353;80;21083;-83
2021/09/26 12:46:45;;;;;;;7.55;5.85;;;;;;;23.46;59.37;99422.77;4421605;80;21090;-82
2021/09/26 12:52:47;;;;;;;6.08;5.47;;;;;;;23.32;59.83;99419.06;4413605;80;22186;-84
2021/09/26 12:58:53;;;;;;;6.55;5.90;;;;;;;23.30;60.38;99420.75;4438573;80;21095;-85
2021/09/26 13:05:10;;;;;;;8.35;5.90;;;;;;;23.21;60.50;99413.80;4431993;80;21044;-84
2021/09/26 13:11:33;;;;;;;6.87;6.12;;;;;;;23.21;60.96;99413.02;4356230;81;21090;-84
2021/09/26 13:17:36;;;;;;;8.45;6.37;;;;;;;23.19;61.09;99414.86;4369830;81;21040;-85
2021/09/26 13:23:39;;;;;;;7.58;6.28;;;;;;;23.08;61.30;99417.86;4335043;81;21069;-85
2021/09/26 13:29:43;;;;;;;7.30;5.83;;;;;;;22.91;61.54;99426.20;4416756;80;21066;-84
2021/09/26 13:35:46;;;;;;;7.35;5.50;;;;;;;22.88;62.03;99418.72;4367026;80;21067;-85
2021/09/26 13:41:48;;;;;;;7.05;5.60;;;;;;;22.82;62.05;99415.69;4374481;81;21614;-84
2021/09/26 13:47:49;;;;;;;10.65;5.62;;;;;;;22.66;62.51;99408.05;4376254;81;20996;-84
2021/09/26 13:53:52;;;;;;;6.58;5.78;;;;;;;22.60;62.59;99408.41;4387068;81;21089;-84
2021/09/26 13:59:59;;;;;;;7.35;5.50;;;;;;;22.50;62.84;99409.51;4382505;81;21601;-85
2021/09/26 14:06:00;;;;;;;7.80;5.62;;;;;;;22.39;63.57;99407.66;4444503;79;20995;-84
2021/09/26 14:12:04;;;;;;;8.80;5.75;;;;;;;22.21;63.80;99401.80;4393150;80;21648;-84
2021/09/26 14:18:11;;;;;;;9.65;5.45;;;;;;;21.97;63.99;99391.56;4399466;80;21103;-84
2021/09/26 14:24:18;;;;;;;8.83;5.50;;;;;;;21.76;64.33;99398.33;4382204;80;21017;-84
2021/09/26 14:30:29;;;;;;;6.22;5.62;;;;;;;21.63;64.83;99400.42;4399459;80;21334;-85
2021/09/26 14:36:31;;;;;;;7.25;5.17;;;;;;;21.58;65.26;99387.66;4392817;80;21041;-85
2021/09/26 14:42:33;;;;;;;7.28;5.53;;;;;;;21.54;65.62;99391.92;4417082;80;21068;-85
2021/09/26 14:48:39;;;;;;;7.20;5.33;;;;;;;21.47;65.93;99390.70;4364143;80;21029;-84
2021/09/26 14:54:40;;;;;;;9.95;5.58;;;;;;;21.34;66.33;99388.48;4393544;80;21045;-84
2021/09/26 15:00:44;;;;;;;6.95;5.30;;;;;;;21.22;66.82;99389.17;4411639;80;21117;-84
2021/09/26 15:06:46;;;;;;;8.43;5.17;;;;;;;21.02;67.18;99389.09;4394058;80;21576;-83
2021/09/26 15:12:51;;;;;;;7.78;5.20;;;;;;;20.83;67.83;99390.72;4389719;80;21045;-84
2021/09/26 15:18:58;;;;;;;9.33;5.65;;;;;;;20.72;68.33;99392.97;4399333;80;21048;-83
2021/09/26 15:25:07;;;;;;;;;;;;;;;20.58;68.63;99379.39;4396435;80;21563;-85
2021/09/26 15:31:11;;;;;;;8.83;5.65;;;;;;;20.45;69.84;99380.51;4410533;80;20097;-85
2021/09/26 15:37:15;;;;;;;9.53;5.60;;;;;;;20.32;69.63;99385.95;4402009;80;21037;-83
2021/09/26 15:43:24;;;;;;;10.40;6.80;;;;;;;20.21;70.09;99381.23;4392685;80;21045;-84
2021/09/26 15:49:29;;;;;;;12.37;8.23;;;;;;;20.09;70.49;99367.97;4394349;80;22210;-84
2021/09/26 15:55:39;;;;;;;12.15;7.08;;;;;;;19.96;70.98;99372.59;4385807;81;21128;-83
2021/09/26 16:01:45;;;;;;;9.90;6.90;;;;;;;19.81;71.34;99377.66;4381448;81;21588;-84
2021/09/26 16:07:59;;;;;;;10.48;5.83;;;;;;;19.62;71.79;99375.64;4375547;81;22168;-83
2021/09/26 16:14:00;;;;;;;8.53;6.10;;;;;;;19.47;72.09;99369.40;4381375;81;21112;-83
2021/09/26 16:20:05;;;;;;;9.75;6.53;;;;;;;19.34;72.54;99367.09;4380035;81;21675;-83
2021/09/26 16:26:08;;;;;;;7.40;5.80;;;;;;;19.19;72.89;99362.95;4381645;80;21037;-85
2021/09/26 16:32:13;;;;;;;9.33;6.80;;;;;;;19.05;73.30;99363.20;4385101;81;21064;-83
2021/09/26 16:38:15;;;;;;;10.08;6.33;;;;;;;18.88;73.69;99367.05;4373372;80;21619;-84
2021/09/26 16:44:17;;;;;;;9.05;6.85;;;;;;;18.71;74.19;99373.08;4390130;80;21044;-83
2021/09/26 16:50:24;;;;;;;7.58;6.78;;;;;;;18.58;74.64;99371.48;4369127;81;21022;-84
2021/09/26 16:56:31;;;;;;;10.98;7.80;;;;;;;18.46;75.15;99378.97;4374805;80;21026;-84
2021/09/26 17:02:32;;;;;;;8.90;7.22;;;;;;;18.32;75.56;99384.69;4376213;81;21088;-84
2021/09/26 17:08:33;;;;;;;13.43;7.97;;;;;;;18.13;75.84;99377.05;4377215;81;21041;-84
2021/09/26 17:14:36;;;;;;;12.98;8.63;;;;;;;17.99;76.63;99388.31;4372453;80;21061;-83
2021/09/26 17:20:41;;;;;;;11.73;8.53;;;;;;;17.89;77.12;99393.38;4382568;81;21045;-84
2021/09/26 17:26:43;;;;;;;12.60;8.53;;;;;;;17.79;77.48;99391.50;4382576;81;21539;-83
2021/09/26 17:32:44;;;;;;;8.98;7.87;;;;;;;17.67;77.95;99392.64;4369755;81;21029;-83
2021/09/26 17:38:50;;;;;;;11.68;8.50;;;;;;;17.51;78.47;99385.52;4377734;81;21088;-83
2021/09/26 17:44:52;;;;;;;11.33;8.13;;;;;;;17.40;78.95;99388.96;4382623;81;21545;-83
2021/09/26 17:50:55;;;;;;;10.80;8.45;;;;;;;17.28;79.56;99395.78;4373838;81;20994;-83
2021/09/26 17:56:59;;;;;;;13.68;9.00;;;;;;;17.11;79.46;99394.77;4384226;81;21053;-83
2021/09/26 18:03:01;;;;;;;13.28;9.20;;;;;;;16.92;80.07;99386.22;4374571;81;21116;-83
2021/09/26 18:09:04;;;;;;;15.65;9.63;;;;;;;16.81;80.13;99390.46;4372725;81;21049;-84
2021/09/26 18:15:13;;;;;;;15.18;9.90;;;;;;;16.68;80.78;99388.56;4371862;81;21052;-83
2021/09/26 18:21:16;;;;;;;13.65;9.70;;;;;;;16.60;81.46;99393.37;4382132;81;21013;-83
2021/09/26 18:27:18;;;;;;;14.23;10.40;;;;;;;16.58;81.78;99393.01;4374586;80;21021;-83
2021/09/26 18:33:28;;;;;;;11.93;9.25;;;;;;;16.58;82.26;99410.17;4373431;81;21494;-83
2021/09/26 18:39:30;;;;;;;15.43;10.15;;;;;;;16.54;82.21;99412.95;4372809;80;21695;-83
2021/09/26 18:45:40;;;;;;;20.92;12.63;;;;;;;16.43;82.86;99415.55;4379266;80;21104;-84
2021/09/26 18:51:46;;;;;;;17.92;11.55;;;;;;;16.33;82.58;99412.27;4373664;81;21045;-83
2021/09/26 18:57:49;;;;;;;15.08;9.65;;;;;;;16.12;82.66;99417.30;4383556;81;21073;-84
2021/09/26 19:03:51;;;;;;;18.32;9.60;;;;;;;15.99;83.06;99431.95;4378630;81;20977;-83
2021/09/26 19:09:53;;;;;;;15.55;9.55;;;;;;;15.91;83.69;99428.41;4380527;80;21111;-84
2021/09/26 19:15:55;;;;;;;12.65;8.95;;;;;;;15.83;83.69;99431.61;4378596;81;21001;-83
2021/09/26 19:21:57;;;;;;;10.60;8.68;;;;;;;15.68;84.17;99430.27;4381665;81;21049;-83
2021/09/26 19:28:00;;;;;;;15.13;9.38;;;;;;;15.64;84.96;99427.33;4380497;80;21075;-83
2021/09/26 19:34:02;;;;;;;12.63;9.60;;;;;;;15.66;85.23;99422.17;4382195;80;21117;-83
2021/09/26 19:40:12;;;;;;;18.92;10.50;;;;;;;15.60;85.47;99421.81;4376585;80;21029;-83
2021/09/26 19:46:21;;;;;;;18.17;9.78;;;;;;;15.50;85.80;99422.61;4380624;81;21044;-83
2021/09/26 19:52:22;;;;;;;12.60;9.18;;;;;;;15.43;86.16;99422.64;4387387;81;21123;-83
2021/09/26 19:58:24;;;;;;;12.43;9.15;;;;;;;15.36;86.40;99414.33;4392191;81;21755;-82
2021/09/26 20:04:32;;;;;;;13.60;9.78;;;;;;;15.27;86.57;99415.91;4377702;81;22182;-83
2021/09/26 20:10:43;;;;;;;14.47;10.72;;;;;;;15.16;86.66;99414.55;4369548;81;21057;-83
2021/09/26 20:16:44;;;;;;;16.70;11.12;;;;;;;15.09;86.91;99417.91;4373797;80;21016;-83
2021/09/26 20:22:49;;;;;;;13.68;11.38;;;;;;;15.02;87.42;99420.06;4375751;80;21593;-83
2021/09/26 20:28:53;;;;;;;23.02;13.08;;;;;;;14.99;88.02;99425.58;4374704;81;21009;-83
2021/09/26 20:35:01;;;;;;;20.90;13.68;;;;;;;14.96;88.39;99431.88;4363032;81;21088;-83
2021/09/26 20:41:06;;;;;;;18.25;14.15;;;;;;;14.91;88.42;99430.91;4386703;81;21076;-83
2021/09/26 20:47:07;;;;;;;17.25;14.33;;;;;;;14.87;89.07;99433.66;4382619;81;21547;-83
2021/09/26 20:53:08;;;;;;;19.07;15.45;;;;;;;14.87;89.47;99432.28;4376452;80;21053;-83
2021/09/26 20:59:10;;;;;;;19.57;14.43;;;;;;;14.86;89.75;99432.67;4367887;81;21108;-83
2021/09/26 21:05:21;;;;;;;21.33;15.05;;;;;;;14.79;90.01;99436.21;4381422;80;21540;-83
2021/09/26 21:11:23;;;;;;;19.75;16.30;;;;;;;14.78;90.17;99447.63;4384778;80;21517;-83
2021/09/26 21:17:24;;;;;;;23.27;18.27;;;;;;;14.75;90.26;99443.66;4384417;81;21064;-84
2021/09/26 21:23:29;;;;;;;24.45;18.90;;;;;;;14.69;90.31;99449.37;4392587;81;21045;-83
2021/09/26 21:29:32;;;;;;;25.60;20.97;;;;;;;14.61;91.06;99445.02;4384217;80;21071;-83
2021/09/26 21:35:35;;;;;;;25.43;20.17;;;;;;;14.60;91.38;99438.52;4386708;81;21536;-82
2021/09/26 21:41:38;;;;;;;32.73;21.60;;;;;;;14.58;91.26;99436.77;4375391;81;21052;-82
2021/09/26 21:47:42;;;;;;;29.30;22.58;;;;;;;14.60;91.89;99435.77;4392762;80;21017;-83
2021/09/26 21:53:43;;;;;;;38.95;25.95;;;;;;;14.60;92.03;99432.44;4373388;81;21111;-82
2021/09/26 21:59:47;;;;;;;36.38;26.42;;;;;;;14.64;92.63;99433.83;4372478;81;21041;-83
2021/09/26 22:05:55;;;;;;;39.10;27.22;;;;;;;14.68;93.15;99427.14;4371721;81;21016;-83
2021/09/26 22:12:02;;;;;;;37.13;26.73;;;;;;;14.74;93.08;99421.44;4379770;81;21069;-83
2021/09/26 22:18:09;;;;;;;41.75;28.57;;;;;;;14.71;93.17;99424.97;4369364;81;21028;-84
2021/09/26 22:24:16;;;;;;;37.75;26.70;;;;;;;14.75;93.95;99417.48;4377686;81;21087;-83
2021/09/26 22:30:18;;;;;;;38.25;27.52;;;;;;;14.77;93.90;99408.86;4362145;81;21064;-83
2021/09/26 22:36:23;;;;;;;41.92;26.57;;;;;;;14.73;94.29;99403.91;4379121;81;21092;-83
2021/09/26 22:42:24;;;;;;;34.88;25.10;;;;;;;14.74;94.45;99388.94;4383328;81;21033;-82
2021/09/26 22:48:30;;;;;;;36.58;25.70;;;;;;;14.75;94.52;99387.78;4371582;81;21037;-84
2021/09/26 22:54:32;;;;;;;39.65;24.45;;;;;;;14.72;94.46;99388.57;4376307;81;21112;-84
2021/09/26 23:00:43;;;;;;;37.50;24.52;;;;;;;14.70;94.82;99379.91;4375370;81;21005;-84
2021/09/26 23:06:45;;;;;;;39.95;26.25;;;;;;;14.69;95.02;99385.23;4367159;81;21557;-84
2021/09/26 23:12:46;;;;;;;42.20;26.73;;;;;;;14.68;95.10;99389.14;4382476;81;21647;-83
2021/09/26 23:18:52;;;;;;;41.65;26.00;;;;;;;14.65;95.28;99379.70;4370291;80;21100;-83
2021/09/26 23:24:53;;;;;;;41.70;27.70;;;;;;;14.63;95.45;99380.68;4373148;80;21088;-83
2021/09/26 23:30:55;;;;;;;41.35;26.62;;;;;;;14.54;95.64;99385.79;4375793;81;21064;-82
2021/09/26 23:36:57;;;;;;;43.30;26.17;;;;;;;14.44;95.89;99392.67;4379058;80;21021;-84
2021/09/26 23:43:05;;;;;;;40.23;26.65;;;;;;;14.45;96.06;99384.59;4372856;81;21088;-84
2021/09/26 23:49:14;;;;;;;38.38;25.35;;;;;;;14.47;96.44;99374.75;4382579;80;21053;-84
2021/09/26 23:55:18;;;;;;;38.38;25.75;;;;;;;14.52;96.54;99365.34;4306817;80;21072;-84
